Time;durP1;ratioP1;P1;durP2;ratioP2;P2;SDS_P1;SDS_P2;PMS_P1;PMS_P2;Temp;Humidity;BMP_temperature;BMP_pressure;BME280_temperature;BME280_humidity;BME280_pressure;Samples;Min_cycle;Max_cycle;Signal;HPM_P1;HPM_P2
2022/07/04 12:20:23;;;;;;;7.00;3.10;;;;;;;;;;4362096;26;20052;-56
2022/07/04 12:22:49;;;;;;;8.32;3.13;;;;;;;;;;5075193;28;20039;-55
2022/07/04 12:25:24;;;;;;;6.35;3.28;;;;;;;;;;5091387;28;20400;-54
2022/07/04 12:27:54;;;;;;;8.27;2.67;;;;;;;;;;5074014;28;20024;-55
2022/07/04 12:30:21;;;;;;;7.10;3.15;;;;;;;;;;5092542;28;20082;-55
2022/07/04 12:32:47;;;;;;;;;;;;;;;;;;5095227;28;20103;-55
2022/07/04 12:35:31;;;;;;;6.38;2.92;;;;;;;;;;5094135;28;19936;-57
2022/07/04 12:38:01;;;;;;;9.07;3.33;;;;;;;;;;5089659;28;20036;-53
2022/07/04 12:40:27;;;;;;;5.15;2.33;;;;;;;;;;5093912;28;20024;-55
2022/07/04 12:42:57;;;;;;;8.80;3.00;;;;;;;;;;5081253;28;20093;-56
2022/07/04 12:45:23;;;;;;;5.40;2.72;;;;;;;;;;5093846;28;20027;-57
2022/07/04 12:47:49;;;;;;;;;;;;;;;;;;5094338;28;20507;-55
2022/07/04 12:50:15;;;;;;;4.53;2.38;;;;;;;;;;5093766;28;19904;-54
2022/07/04 12:52:42;;;;;;;6.05;2.13;;;;;;;;;;5092493;28;20020;-56
2022/07/04 12:55:12;;;;;;;7.53;2.47;;;;;;;;;;5093604;28;20033;-55
2022/07/04 12:57:38;;;;;;;13.05;3.00;;;;;;;;;;5075071;28;20388;-56
2022/07/04 13:00:04;;;;;;;2.72;2.10;;;;;;;;;;5093111;28;20515;-53
2022/07/04 13:02:30;;;;;;;3.78;2.17;;;;;;;;;;5093213;28;20027;-55
2022/07/04 13:04:56;;;;;;;7.03;2.20;;;;;;;;;;5093371;28;20028;-54
2022/07/04 13:07:23;;;;;;;5.95;2.53;;;;;;;;;;5093462;28;20024;-54
2022/07/04 13:09:49;;;;;;;5.55;2.00;;;;;;;;;;5092893;28;20024;-54
2022/07/04 13:12:24;;;;;;;6.68;2.17;;;;;;;;;;5093134;28;20393;-56
2022/07/04 13:14:51;;;;;;;7.22;2.58;;;;;;;;;;5093045;28;20039;-54
2022/07/04 13:17:17;;;;;;;7.95;2.50;;;;;;;;;;5093326;28;20027;-56
2022/07/04 13:19:43;;;;;;;;;;;;;;;;;;5093501;28;20024;-56
2022/07/04 13:22:09;;;;;;;6.28;2.42;;;;;;;;;;5092908;28;19957;-55
2022/07/04 13:24:35;;;;;;;;;;;;;;;;;;5093285;28;20525;-57
2022/07/04 13:27:01;;;;;;;13.38;2.90;;;;;;;;;;5093195;28;19904;-54
2022/07/04 13:29:27;;;;;;;;;;;;;;;;;;5074643;28;20031;-54
2022/07/04 13:31:53;;;;;;;9.48;2.10;;;;;;;;;;5092874;28;19908;-53
2022/07/04 13:34:19;;;;;;;7.75;2.20;;;;;;;;;;5092965;28;20115;-54
2022/07/04 13:36:45;;;;;;;5.80;2.22;;;;;;;;;;5092990;28;20032;-55
2022/07/04 13:39:12;;;;;;;6.05;1.98;;;;;;;;;;5092600;28;20032;-56
2022/07/04 13:41:38;;;;;;;8.18;2.35;;;;;;;;;;5092625;28;20036;-56
2022/07/04 13:44:05;;;;;;;3.75;2.30;;;;;;;;;;5092282;28;20035;-54
2022/07/04 13:46:34;;;;;;;5.57;2.42;;;;;;;;;;5092788;28;20433;-54
2022/07/04 13:49:01;;;;;;;5.40;2.63;;;;;;;;;;5092489;28;20053;-54
2022/07/04 13:51:27;;;;;;;5.28;2.25;;;;;;;;;;5093146;28;20107;-54
2022/07/04 13:53:53;;;;;;;5.75;2.83;;;;;;;;;;5092474;28;20063;-54
2022/07/04 13:56:20;;;;;;;9.43;2.25;;;;;;;;;;5092636;28;20474;-54
2022/07/04 13:58:47;;;;;;;14.05;11.77;;;;;;;;;;5092354;28;20074;-59
2022/07/04 14:01:15;;;;;;;6.65;2.70;;;;;;;;;;5092430;28;20365;-58
2022/07/04 14:03:42;;;;;;;7.65;2.47;;;;;;;;;;5092119;28;20047;-59
2022/07/04 14:06:08;;;;;;;7.68;2.30;;;;;;;;;;5092590;28;20031;-59
2022/07/04 14:08:34;;;;;;;10.52;2.67;;;;;;;;;;5092541;28;20027;-59
2022/07/04 14:11:00;;;;;;;7.88;2.70;;;;;;;;;;5074206;28;20161;-58
2022/07/04 14:13:27;;;;;;;7.38;2.35;;;;;;;;;;5092092;28;20064;-59
2022/07/04 14:15:53;;;;;;;7.32;2.63;;;;;;;;;;5092005;28;20443;-59
2022/07/04 14:18:19;;;;;;;44.08;5.00;;;;;;;;;;5092272;28;20035;-60
2022/07/04 14:20:45;;;;;;;4.35;2.58;;;;;;;;;;5091624;28;20063;-58
2022/07/04 14:23:11;;;;;;;5.95;2.33;;;;;;;;;;5092200;28;20119;-59
2022/07/04 14:25:38;;;;;;;8.73;2.75;;;;;;;;;;5092060;28;20107;-59
2022/07/04 14:28:04;;;;;;;3.92;2.60;;;;;;;;;;5074027;28;20372;-54
2022/07/04 14:30:30;;;;;;;4.20;2.33;;;;;;;;;;5091588;28;20035;-55
2022/07/04 14:32:57;;;;;;;4.65;2.35;;;;;;;;;;5091915;28;20537;-54
2022/07/04 14:35:23;;;;;;;3.10;1.95;;;;;;;;;;5091810;28;20051;-56
2022/07/04 14:37:54;;;;;;;6.93;2.30;;;;;;;;;;5091166;28;20028;-59
2022/07/04 14:40:20;;;;;;;7.30;2.03;;;;;;;;;;5073286;28;20047;-59
2022/07/04 14:42:48;;;;;;;5.30;2.00;;;;;;;;;;5091942;28;20028;-52
2022/07/04 14:45:14;;;;;;;13.65;3.10;;;;;;;;;;5087694;28;20065;-51
2022/07/04 14:47:41;;;;;;;6.57;2.92;;;;;;;;;;5104556;28;20066;-52
2022/07/04 14:50:08;;;;;;;8.30;2.70;;;;;;;;;;5100855;28;20020;-49
2022/07/04 14:52:35;;;;;;;2.83;1.92;;;;;;;;;;5091637;28;20063;-49
2022/07/04 14:55:02;;;;;;;5.80;2.20;;;;;;;;;;5091413;28;20027;-51
2022/07/04 14:57:28;;;;;;;4.57;2.72;;;;;;;;;;5091084;28;20067;-51
2022/07/04 14:59:54;;;;;;;9.65;2.45;;;;;;;;;;5090789;28;20481;-51
2022/07/04 15:02:20;;;;;;;11.48;2.70;;;;;;;;;;5091328;28;20095;-54
2022/07/04 15:04:46;;;;;;;7.28;2.35;;;;;;;;;;5091412;28;20070;-51
2022/07/04 15:07:12;;;;;;;6.20;2.75;;;;;;;;;;5058715;28;20025;-51
2022/07/04 15:09:38;;;;;;;7.32;2.28;;;;;;;;;;5075447;28;20066;-51
2022/07/04 15:12:04;;;;;;;4.32;2.03;;;;;;;;;;5094925;28;20088;-50
2022/07/04 15:14:30;;;;;;;13.60;2.17;;;;;;;;;;5111765;28;20546;-51
2022/07/04 15:16:56;;;;;;;6.32;2.22;;;;;;;;;;5098006;28;20028;-50
2022/07/04 15:19:22;;;;;;;103.10;8.05;;;;;;;;;;5094262;28;20020;-50
2022/07/04 15:24:33;;;;;;;5.68;2.25;;;;;;;;;;5111660;28;20530;-50
2022/07/04 15:26:59;;;;;;;13.88;2.25;;;;;;;;;;5094823;28;20028;-50
2022/07/04 15:29:25;;;;;;;7.43;2.08;;;;;;;;;;5093365;28;20063;-50
2022/07/04 15:31:52;;;;;;;9.32;2.20;;;;;;;;;;5104136;28;20018;-51
2022/07/04 15:34:18;;;;;;;5.90;2.33;;;;;;;;;;5116106;28;20112;-53
2022/07/04 15:36:44;;;;;;;5.18;2.40;;;;;;;;;;5115860;28;20480;-51
2022/07/04 15:39:12;;;;;;;14.20;3.03;;;;;;;;;;5112447;28;20028;-51
2022/07/04 15:41:38;;;;;;;8.50;2.50;;;;;;;;;;5074810;28;20028;-50
2022/07/04 15:44:05;;;;;;;6.95;2.60;;;;;;;;;;5094476;28;20038;-50
2022/07/04 15:46:31;;;;;;;8.80;2.42;;;;;;;;;;5095020;28;20091;-50
2022/07/04 15:48:58;;;;;;;6.38;1.70;;;;;;;;;;5085958;28;20400;-50
2022/07/04 15:51:24;;;;;;;5.00;2.80;;;;;;;;;;5074664;28;20032;-51
2022/07/04 15:53:50;;;;;;;6.47;2.35;;;;;;;;;;5094578;28;20028;-51
2022/07/04 15:56:16;;;;;;;;;;;;;;;;;;5095232;28;20107;-50
2022/07/04 15:58:42;;;;;;;13.30;2.35;;;;;;;;;;5094739;28;19962;-50
2022/07/04 16:01:08;;;;;;;;;;;;;;;;;;5095339;28;20081;-50
2022/07/04 16:03:34;;;;;;;3.05;2.08;;;;;;;;;;5094462;28;19915;-50
2022/07/04 16:06:00;;;;;;;;;;;;;;;;;;5094974;28;20024;-50
2022/07/04 16:08:26;;;;;;;9.65;3.40;;;;;;;;;;5094707;28;19911;-52
2022/07/04 16:10:52;;;;;;;6.43;2.10;;;;;;;;;;5094689;28;20024;-51
2022/07/04 16:13:18;;;;;;;7.28;1.85;;;;;;;;;;5084083;28;20112;-51
2022/07/04 16:15:45;;;;;;;;;;;;;;;;;;5102884;28;20028;-51
2022/07/04 16:18:12;;;;;;;10.15;2.33;;;;;;;;;;5106263;28;19908;-51
2022/07/04 16:20:38;;;;;;;3.15;2.13;;;;;;;;;;5108486;28;20027;-51
2022/07/04 16:23:04;;;;;;;;;;;;;;;;;;5094670;28;20517;-50
2022/07/04 16:25:30;;;;;;;9.18;2.05;;;;;;;;;;5094116;28;20316;-51
2022/07/04 16:27:57;;;;;;;5.68;1.73;;;;;;;;;;5093160;28;20023;-50
2022/07/04 16:30:25;;;;;;;5.57;2.00;;;;;;;;;;5094060;28;20028;-50
2022/07/04 16:32:51;;;;;;;2.88;1.63;;;;;;;;;;5094307;28;20400;-50
2022/07/04 16:35:17;;;;;;;3.58;2.22;;;;;;;;;;5094140;28;20028;-51
2022/07/04 16:37:43;;;;;;;8.63;2.72;;;;;;;;;;5093504;28;20028;-51
2022/07/04 16:42:41;;;;;;;96.07;7.80;;;34.60;33.90;;;;;;5074151;28;20415;-51
2022/07/04 16:45:08;;;;;;;53.95;5.72;;;32.30;39.40;;;;;;5059281;28;20086;-50
2022/07/04 16:47:34;;;;;;;28.88;10.70;;;;;;;;;;5047142;28;20044;-49
2022/07/04 16:50:00;;;;;;;43.13;7.60;;;;;;;;;;5068677;28;20031;-48
2022/07/04 16:52:26;;;;;;;31.90;9.07;;;;;;;;;;5059668;28;20067;-49
2022/07/04 16:54:52;;;;;;;32.55;12.40;;;;;;;;;;5063540;22;20076;-49
2022/07/04 16:57:18;;;;;;;23.17;8.60;;;;;;;;;;5021944;28;20101;-48
2022/07/04 16:59:44;;;;;;;10.97;3.87;;;;;;;;;;5021735;28;20033;-48
2022/07/04 17:02:10;;;;;;;17.90;4.17;;;;;;;;;;5028272;28;20045;-48
2022/07/04 17:04:37;;;;;;;10.47;4.40;;;;;;;;;;5020485;28;20483;-48
2022/07/04 17:07:03;;;;;;;9.85;4.30;;;;;;;;;;5006398;28;20327;-50
2022/07/04 17:09:29;;;;;;;21.33;7.90;;;;;;;;;;5006873;28;20105;-51
2022/07/04 17:11:55;;;;;;;10.98;4.93;;;;;;;;;;5006435;28;20637;-48
2022/07/04 17:14:21;;;;;;;10.97;4.43;;;;;;;;;;4999493;28;20022;-48
2022/07/04 17:16:48;;;;;;;11.00;3.23;;;;;;;;;;5008350;28;20030;-49
2022/07/04 17:19:14;;;;;;;9.85;3.78;;;;;;;;;;4996599;28;20026;-48
2022/07/04 17:21:40;;;;;;;13.15;3.15;;;;;;;;;;5008140;28;20023;-48
2022/07/04 17:24:07;;;;;;;8.15;3.80;;;;;;;;;;5007945;28;20113;-48
2022/07/04 17:26:33;;;;;;;10.27;3.55;;;;;;;;;;5008302;28;20483;-48
2022/07/04 17:28:59;;;;;;;8.53;2.57;;;;;;;;;;5000334;28;20031;-48
2022/07/04 17:31:25;;;;;;;7.90;2.40;;;;;;;;;;5003638;28;20282;-48
2022/07/04 17:33:51;;;;;;;6.40;2.85;;;;;;;;;;5008513;28;20030;-49
2022/07/04 17:36:17;;;;;;;4.53;2.33;;;;;;;;;;5008642;28;20402;-48
2022/07/04 17:38:43;;;;;;;9.27;2.05;;;;;;;;;;5003311;28;20026;-48
2022/07/04 17:43:55;;;;;;;9.00;2.75;;;;;;;;;;5001275;28;20040;-49
2022/07/04 17:46:21;;;;;;;9.02;1.90;;;;;;;;;;5007687;28;20034;-49
2022/07/04 17:48:47;;;;;;;10.37;2.50;;;;;;;;;;5003853;28;20395;-51
2022/07/04 17:51:13;;;;;;;10.93;3.13;;;;;;;;;;5001023;28;20029;-50
2022/07/04 17:53:39;;;;;;;7.18;2.53;;;;;;;;;;4989827;28;20117;-48
2022/07/04 17:56:05;;;;;;;8.20;3.07;;;;;;;;;;4993559;28;20042;-48
2022/07/04 17:58:31;;;;;;;7.10;2.87;;;;;;;;;;4990624;28;20057;-49
2022/07/04 18:00:58;;;;;;;9.68;2.42;;;;;;;;;;4982008;28;20286;-49
2022/07/04 18:03:24;;;;;;;4.63;2.20;;;;;;;;;;4980774;28;20117;-49
2022/07/04 18:05:50;;;;;;;11.07;3.47;;;;;;;;;;4993363;28;20479;-50
2022/07/04 18:08:16;;;;;;;6.18;2.55;;;;;;;;;;4990638;28;20026;-49
2022/07/04 18:10:42;;;;;;;8.87;2.90;;;;;;;;;;4994627;28;20026;-49
2022/07/04 18:13:08;;;;;;;5.13;2.70;;;;;;;;;;4989432;28;20037;-49
2022/07/04 18:15:34;;;;;;;12.93;2.27;;;;;;;;;;4994635;28;20097;-49
2022/07/04 18:18:03;;;;;;;8.35;2.88;;;;;;;;;;4992976;28;20265;-49
2022/07/04 18:20:29;;;;;;;12.07;2.45;;;;;;;;;;4994217;28;20030;-49
2022/07/04 18:22:57;;;;;;;5.87;2.17;;;;;;;;;;4993209;28;20022;-49
2022/07/04 18:25:23;;;;;;;3.08;2.17;;;;;;;;;;4988228;28;20097;-50
2022/07/04 18:27:50;;;;;;;8.40;2.42;;;;;;;;;;4992243;28;20026;-52
2022/07/04 18:30:16;;;;;;;5.78;2.60;;;;;;;;;;4987886;28;20022;-49
2022/07/04 18:32:43;;;;;;;7.35;2.70;;;;;;;;;;4991971;28;20038;-49
2022/07/04 18:35:09;;;;;;;15.48;3.63;;;;;;;;;;4989643;28;20023;-50
2022/07/04 18:37:35;;;;;;;9.30;2.97;;;;;;;;;;4974560;28;20033;-53
2022/07/04 18:40:01;;;;;;;16.00;2.40;;;;;;;;;;4973355;28;20462;-49
2022/07/04 18:45:13;;;;;;;9.07;2.55;;;;;;;;;;4974654;28;20062;-52
2022/07/04 18:47:39;;;;;;;;;;;;;;;;;;4974252;28;20026;-49
2022/07/04 18:50:05;;;;;;;11.45;2.78;;;;;;;;;;4974441;28;19913;-50
2022/07/04 18:52:31;;;;;;;8.30;2.75;;;;;;;;;;4974744;28;20042;-50
2022/07/04 18:54:58;;;;;;;17.13;4.17;;;;;;;;;;4974450;28;20529;-49
2022/07/04 18:57:24;;;;;;;10.00;3.75;;;;;;;;;;4974759;28;20459;-49
2022/07/04 18:59:50;;;;;;;10.73;2.95;;;;;;;;;;4974365;28;20031;-51
2022/07/04 19:02:16;;;;;;;10.10;3.25;;;;;;;;;;4974326;28;20109;-50
2022/07/04 19:04:42;;;;;;;7.57;4.13;;;;;;;;;;4973035;28;20026;-50
2022/07/04 19:07:08;;;;;;;20.63;3.40;;;;;;;;;;4974316;28;20475;-50
2022/07/04 19:09:34;;;;;;;8.80;2.70;;;;;;;;;;4990200;28;20302;-50
2022/07/04 19:12:00;;;;;;;3.35;1.75;;;;;;;;;;4992586;28;20081;-51
2022/07/04 19:14:26;;;;;;;4.67;2.87;;;;;;;;;;4983036;28;20118;-51
2022/07/04 19:16:53;;;;;;;9.15;1.88;;;;;;;;;;4993188;28;20034;-50
2022/07/04 19:19:19;;;;;;;6.72;1.98;;;;;;;;;;4993051;28;20026;-52
2022/07/04 19:21:49;;;;;;;5.80;2.42;;;;;;;;;;4985380;28;20030;-52
2022/07/04 19:24:17;;;;;;;10.23;2.88;;;;;;;;;;4982187;28;20014;-52
2022/07/04 19:26:43;;;;;;;7.65;1.95;;;;;;;;;;4993366;28;20027;-51
2022/07/04 19:29:10;;;;;;;3.50;2.10;;;;;;;;;;4992617;28;20023;-53
2022/07/04 19:31:38;;;;;;;;;;;;;;;;;;4984600;28;20049;-51
2022/07/04 19:34:04;;;;;;;8.73;2.00;;;;;;;;;;4987659;28;20290;-53
2022/07/04 19:36:30;;;;;;;18.25;2.53;;;;;;;;;;4992849;28;20035;-50
2022/07/04 19:38:56;;;;;;;6.90;2.35;;;;;;;;;;4992818;28;20057;-50
2022/07/04 19:41:22;;;;;;;10.93;3.50;;;;;;;;;;4992700;28;20030;-48
2022/07/04 19:43:49;;;;;;;12.05;3.15;;;;;;;;;;4991638;28;20031;-49
2022/07/04 19:46:15;;;;;;;5.65;2.50;;;;;;;;;;4992482;28;20394;-49
2022/07/04 19:48:41;;;;;;;7.00;3.63;;;;;;;;;;4992758;28;20082;-49
2022/07/04 19:51:11;;;;;;;8.70;3.50;;;;;;;;;;4992844;28;20030;-50
2022/07/04 19:53:37;;;;;;;7.72;2.70;;;;;;;;;;4980432;28;20038;-49
2022/07/04 19:56:03;;;;;;;7.70;2.67;;;;;;;;;;4973468;28;20034;-49
2022/07/04 19:58:32;;;;;;;9.85;2.65;;;;;;;;;;4991079;28;20038;-49
2022/07/04 20:00:59;;;;;;;9.68;3.45;;;;;;;;;;4992605;28;20395;-49
2022/07/04 20:03:25;;;;;;;8.70;2.80;;;;;;;;;;4992491;28;20034;-49
2022/07/04 20:05:51;;;;;;;6.63;2.30;;;;;;;;;;4989284;28;20269;-49
2022/07/04 20:08:17;;;;;;;11.73;2.88;;;;;;;;;;4992077;28;20285;-49
2022/07/04 20:10:44;;;;;;;13.80;2.78;;;;;;;;;;4992184;28;20046;-49
2022/07/04 20:13:11;;;;;;;7.73;2.93;;;;;;;;;;4988362;28;20031;-49
2022/07/04 20:15:40;;;;;;;8.70;3.65;;;;;;;;;;4992235;28;20038;-50
2022/07/04 20:18:07;;;;;;;7.63;3.15;;;;;;;;;;4992357;28;20026;-51
2022/07/04 20:20:33;;;;;;;9.38;3.22;;;;;;;;;;4991382;28;20034;-48
2022/07/04 20:22:59;;;;;;;9.50;3.27;;;;;;;;;;4991169;28;20014;-50
2022/07/04 20:25:26;;;;;;;7.00;3.22;;;;;;;;;;4992408;28;20077;-49
2022/07/04 20:27:53;;;;;;;6.70;3.20;;;;;;;;;;4991881;28;20046;-48
2022/07/04 20:30:19;;;;;;;;;;;;;;;;;;4992692;28;20034;-49
2022/07/04 20:32:46;;;;;;;8.88;3.63;;;;;;;;;;4992186;28;19909;-49
2022/07/04 20:35:14;;;;;;;12.55;3.33;;;;;;;;;;4992416;28;20097;-50
2022/07/04 20:37:40;;;;;;;13.20;4.30;;;;;;;;;;4992048;28;20053;-49
2022/07/04 20:40:07;;;;;;;9.32;3.05;;;;;;;;;;4991963;28;20491;-49
2022/07/04 20:42:33;;;;;;;9.38;3.47;;;;;;;;;;4991959;28;20069;-49
2022/07/04 20:44:59;;;;;;;12.67;4.07;;;;;;;;;;4990753;28;20471;-48
2022/07/04 20:47:26;;;;;;;13.47;4.00;;;;;;;;;;4992051;28;20027;-49
2022/07/04 20:49:53;;;;;;;7.72;3.42;;;;;;;;;;4991999;28;20073;-49
2022/07/04 20:52:19;;;;;;;9.52;3.60;;;;;;;;;;4992227;28;20398;-49
2022/07/04 20:54:45;;;;;;;7.77;3.50;;;;;;;;;;4992068;28;20097;-49
2022/07/04 20:57:11;;;;;;;11.07;3.57;;;;;;;;;;4991553;28;20056;-50
2022/07/04 20:59:38;;;;;;;11.17;3.63;;;;;;;;;;4991505;28;20277;-49
2022/07/04 21:02:05;;;;;;;7.68;3.47;;;;;;;;;;4992064;28;20041;-49
2022/07/04 21:04:32;;;;;;;10.57;4.50;;;;;;;;;;4992006;28;20022;-49
2022/07/04 21:06:58;;;;;;;11.97;3.83;;;;;;;;;;4991606;28;20130;-51
2022/07/04 21:09:24;;;;;;;7.22;4.30;;;;;;;;;;4991732;28;20301;-50
2022/07/04 21:11:50;;;;;;;9.13;4.70;;;;;;;;;;4991592;28;20031;-49
2022/07/04 21:14:16;;;;;;;15.70;4.93;;;;;;;;;;4990787;28;20026;-50
2022/07/04 21:16:42;;;;;;;14.10;4.27;;;;;;;;;;4991753;28;20499;-50
2022/07/04 21:19:08;;;;;;;8.93;4.07;;;;;;;;;;4991847;28;20105;-49
2022/07/04 21:21:34;;;;;;;10.30;4.13;;;;;;;;;;4991955;28;20022;-53
2022/07/04 21:24:00;;;;;;;19.43;4.40;;;;;;;;;;4990994;28;20391;-50
2022/07/04 21:26:26;;;;;;;16.42;5.10;;;;;;;;;;4991469;28;20027;-50
2022/07/04 21:28:53;;;;;;;12.73;5.57;;;;;;;;;;4994201;28;20034;-50
2022/07/04 21:31:19;;;;;;;13.43;4.93;;;;;;;;;;4995406;28;20034;-52
2022/07/04 21:33:45;;;;;;;7.80;4.03;;;;;;;;;;4995482;28;20521;-53
2022/07/04 21:36:11;;;;;;;12.03;4.17;;;;;;;;;;4994106;28;20384;-49
2022/07/04 21:38:38;;;;;;;12.40;4.88;;;;;;;;;;4995477;28;20031;-53
2022/07/04 21:41:04;;;;;;;16.02;5.00;;;;;;;;;;4995060;28;20475;-51
2022/07/04 21:43:31;;;;;;;13.48;4.22;;;;;;;;;;4994923;28;20070;-49
2022/07/04 21:45:57;;;;;;;10.38;4.78;;;;;;;;;;4994870;28;20030;-51
2022/07/04 21:48:23;;;;;;;18.80;4.70;;;;;;;;;;4995187;28;20387;-53
2022/07/04 21:50:50;;;;;;;11.98;4.10;;;;;;;;;;4995124;28;20034;-50
2022/07/04 21:53:16;;;;;;;14.10;4.32;;;;;;;;;;4994928;28;20531;-51
2022/07/04 21:55:42;;;;;;;11.10;3.90;;;;;;;;;;4994480;28;20037;-53
2022/07/04 21:58:11;;;;;;;10.07;4.63;;;;;;;;;;4993644;28;20045;-50
2022/07/04 22:00:37;;;;;;;10.27;4.28;;;;;;;;;;4992619;28;20121;-53
2022/07/04 22:03:03;;;;;;;17.20;4.47;;;;;;;;;;4995166;28;20035;-52
2022/07/04 22:05:29;;;;;;;15.30;4.20;;;;;;;;;;4993739;28;20487;-49
2022/07/04 22:07:55;;;;;;;14.25;4.68;;;;;;;;;;4994382;28;20387;-49
2022/07/04 22:10:21;;;;;;;10.47;4.37;;;;;;;;;;4994149;28;20109;-49
2022/07/04 22:12:47;;;;;;;17.90;5.03;;;;;;;;;;4993322;28;20038;-49
2022/07/04 22:15:13;;;;;;;11.90;4.17;;;;;;;;;;4994479;28;20412;-49
2022/07/04 22:17:39;;;;;;;16.98;5.72;;;;;;;;;;4993550;28;20394;-49
2022/07/04 22:20:05;;;;;;;14.87;5.53;;;;;;;;;;4994241;28;20030;-49
2022/07/04 22:22:32;;;;;;;12.27;4.82;;;;;;;;;;4994359;28;20034;-49
2022/07/04 22:24:58;;;;;;;16.20;5.00;;;;;;;;;;4994279;28;20034;-49
2022/07/04 22:27:24;;;;;;;11.65;4.72;;;;;;;;;;4994537;28;20630;-49
2022/07/04 22:29:50;;;;;;;14.47;5.80;;;;;;;;;;4994162;28;20026;-49
2022/07/04 22:32:16;;;;;;;13.15;5.13;;;;;;;;;;4994134;28;20037;-49
2022/07/04 22:34:42;;;;;;;14.10;5.97;;;;;;;;;;4994140;28;20403;-49
2022/07/04 22:37:08;;;;;;;13.23;5.87;;;;;;;;;;4993908;28;20057;-49
2022/07/04 22:39:35;;;;;;;16.53;7.07;;;;;;;;;;4993891;28;20030;-49
2022/07/04 22:42:01;;;;;;;15.30;5.03;;;;;;;;;;4993973;28;20034;-49
2022/07/04 22:44:27;;;;;;;12.55;5.90;;;;;;;;;;4994024;28;20494;-51
2022/07/04 22:46:53;;;;;;;14.70;5.47;;;;;;;;;;4994094;28;20109;-49
2022/07/04 22:49:19;;;;;;;18.30;6.17;;;;;;;;;;4993587;28;20031;-49
2022/07/04 22:51:45;;;;;;;19.47;7.03;;;;;;;;;;4994132;28;20030;-49
2022/07/04 22:56:56;;;;;;;14.63;5.43;;;;;;;;;;5012860;28;20052;-47
2022/07/04 22:59:22;;;;;;;14.60;5.77;;;;;;;;;;5013447;28;20068;-48
2022/07/04 23:01:48;;;;;;;16.33;6.57;;;;;;;;;;5012912;28;20109;-47
2022/07/04 23:04:14;;;;;;;14.57;6.63;;;;;;;;;;5010779;28;20080;-47
2022/07/04 23:06:40;;;;;;;15.70;7.50;;;;;;;;;;4993868;28;20037;-48
2022/07/04 23:09:06;;;;;;;18.63;6.43;;;;;;;;;;4993576;28;20049;-49
2022/07/04 23:11:33;;;;;;;18.00;7.13;;;;;;;;;;5008181;28;20039;-49
2022/07/04 23:13:59;;;;;;;16.98;7.35;;;;;;;;;;4993534;28;20034;-48
2022/07/04 23:16:25;;;;;;;18.20;7.85;;;;;;;;;;4993597;28;20030;-50
2022/07/04 23:18:51;;;;;;;18.77;7.07;;;;;;;;;;4991934;28;20034;-49
2022/07/04 23:21:17;;;;;;;18.52;7.93;;;;;;;;;;4993480;28;20033;-47
2022/07/04 23:23:43;;;;;;;13.70;8.05;;;;;;;;;;4993195;28;20037;-47
2022/07/04 23:26:09;;;;;;;14.43;7.53;;;;;;;;;;4993391;28;20030;-50
2022/07/04 23:28:35;;;;;;;12.97;8.40;;;;;;;;;;4992747;28;20034;-48
2022/07/04 23:31:01;;;;;;;14.85;6.35;;;;;;;;;;4993223;28;20030;-49
2022/07/04 23:33:27;;;;;;;16.90;6.87;;;;;;;;;;4993264;28;20034;-50
2022/07/04 23:35:53;;;;;;;15.77;8.10;;;;;;;;;;4993196;28;20109;-50
2022/07/04 23:38:19;;;;;;;16.57;6.87;;;;;;;;;;4993256;28;20035;-49
2022/07/04 23:40:45;;;;;;;19.15;8.07;;;;;;;;;;4992862;28;20030;-47
2022/07/04 23:43:11;;;;;;;15.43;7.70;;;;;;;;;;4993015;28;20034;-47
2022/07/04 23:45:37;;;;;;;11.50;6.73;;;;;;;;;;4992903;28;20062;-47
2022/07/04 23:48:04;;;;;;;19.60;7.63;;;;;;;;;;4992768;28;20065;-46
2022/07/04 23:50:30;;;;;;;14.68;8.10;;;;;;;;;;4992473;28;20026;-47
2022/07/04 23:52:56;;;;;;;14.67;7.93;;;;;;;;;;4992254;28;20028;-48
2022/07/04 23:55:22;;;;;;;17.43;7.40;;;;;;;;;;4992631;28;20439;-47
2022/07/04 23:57:48;;;;;;;22.60;8.40;;;;;;;;;;4992969;28;20433;-48
